This is the latest recevied weather packets stored in our database for station/object K4SHP-15. If no packets are shown the sender has not sent any weather packets the latest 10 day(s).
| Time | Temp. | Humidity | Pressure | Rain* | Wind** | Luminosity | Snow |
|---|---|---|---|---|---|---|---|
| 1778144964 | 20° C | 97% | 1009.3 hPa | 0.51 mm | - | - | - |
| 1778144043 | 20° C | 97% | 1009.5 hPa | 0.51 mm | - | - | - |
| 1778143503 | 20° C | 97% | 1009.5 hPa | 0.25 mm | - | - | - |
| 1778142423 | 20° C | 97% | 1009.5 hPa | 0.25 mm | - | - | - |
| 1778136843 | 20° C | 96% | 1009.5 hPa | 0.25 mm | - | - | - |
| 1778136303 | 20° C | 95% | 1009.5 hPa | 0.51 mm | - | - | - |
| 1778135223 | 20° C | 95% | 1009.8 hPa | 1.02 mm | - | - | - |
| 1778130003 | 21.67° C | 86% | 1013.4 hPa | 0.25 mm | - | - | - |
| 1778129664 | 21.67° C | 84% | 1012.6 hPa | 0 mm | - | - | - |
| 1778127504 | 22.22° C | 81% | 1011.8 hPa | 0 mm | - | - | - |
| 1778117243 | 23.89° C | 72% | 1011.5 hPa | 0 mm | - | - | - |
| 1778115602 | 24.44° C | 70% | 1011.3 hPa | 0 mm | - | - | - |
| 1778114702 | 24.44° C | 70% | 1011.3 hPa | 0 mm | - | - | - |
| 1778112002 | 25.56° C | 68% | 1011 hPa | 0 mm | - | - | - |
| 1778111642 | 26.11° C | 68% | 1010.7 hPa | 0 mm | - | - | - |
| 1778110022 | 26.67° C | 69% | 1010.7 hPa | 0 mm | - | - | - |
| 1778105363 | 28.89° C | 53% | 1010.7 hPa | 0 mm | - | - | - |
| 1778100842 | 29.44° C | 53% | 1011.2 hPa | 0 mm | - | - | - |
| 1778098682 | 28.89° C | 54% | 1011.5 hPa | 0 mm | - | - | - |
| 1778097623 | 28.89° C | 52% | 1011.2 hPa | 0 mm | - | - | - |
| 1778094542 | 30° C | 50% | 1012.6 hPa | 0 mm | - | - | - |
| 1778094002 | 30.56° C | 50% | 1012.6 hPa | 0 mm | - | - | - |
| 1778093642 | 30.56° C | 50% | 1012.9 hPa | 0 mm | - | - | - |
| 1778092022 | 30.56° C | 50% | 1013 hPa | 0 mm | - | - | - |
| 1778091482 | 30.56° C | 49% | 1013.3 hPa | 0 mm | - | - | - |
* Rain latest hour (hover to see other rain measurements)
** Current wind speed in m/s (hover to see current wind gust speed)